sensor_id;sensor_type;location;lat;lon;timestamp;pressure;altitude;pressure_sealevel;temperature;humidity
11643;BME280;5877;50.930;6.918;2024-02-26T00:09:20;99198.06;;;11.34;54.67
11643;BME280;5877;50.930;6.918;2024-02-26T00:19:02;99183.13;;;11.39;54.87
11643;BME280;5877;50.930;6.918;2024-02-26T00:28:45;99141.25;;;10.91;55.14
11643;BME280;5877;50.930;6.918;2024-02-26T00:38:29;99154.66;;;10.40;57.19
11643;BME280;5877;50.930;6.918;2024-02-26T00:48:11;99111.34;;;10.11;58.35
11643;BME280;5877;50.930;6.918;2024-02-26T00:57:55;99153.75;;;9.86;59.87
11643;BME280;5877;50.930;6.918;2024-02-26T01:07:38;99159.56;;;10.86;58.45
11643;BME280;5877;50.930;6.918;2024-02-26T01:17:21;99155.03;;;10.05;61.97
11643;BME280;5877;50.930;6.918;2024-02-26T01:27:03;99160.31;;;10.27;63.45
11643;BME280;5877;50.930;6.918;2024-02-26T01:36:45;99162.41;;;10.08;68.44
11643;BME280;5877;50.930;6.918;2024-02-26T01:46:29;99146.91;;;10.24;66.54
11643;BME280;5877;50.930;6.918;2024-02-26T01:56:12;99120.66;;;9.41;75.72
11643;BME280;5877;50.930;6.918;2024-02-26T02:05:56;99118.16;;;9.90;71.90
11643;BME280;5877;50.930;6.918;2024-02-26T02:15:38;99130.53;;;10.17;68.58
11643;BME280;5877;50.930;6.918;2024-02-26T02:25:20;99135.34;;;10.03;67.45
11643;BME280;5877;50.930;6.918;2024-02-26T02:35:02;99134.75;;;10.18;67.51
11643;BME280;5877;50.930;6.918;2024-02-26T02:44:46;99133.59;;;10.08;67.43
11643;BME280;5877;50.930;6.918;2024-02-26T02:54:29;99131.66;;;10.21;68.25
11643;BME280;5877;50.930;6.918;2024-02-26T03:04:12;99113.53;;;9.97;68.87
11643;BME280;5877;50.930;6.918;2024-02-26T03:13:54;99105.19;;;9.79;71.25
11643;BME280;5877;50.930;6.918;2024-02-26T03:23:36;99127.13;;;9.94;72.91
11643;BME280;5877;50.930;6.918;2024-02-26T03:33:19;99117.19;;;9.96;74.95
11643;BME280;5877;50.930;6.918;2024-02-26T03:43:01;99120.75;;;9.68;80.44
11643;BME280;5877;50.930;6.918;2024-02-26T03:52:44;99122.03;;;9.27;80.11
11643;BME280;5877;50.930;6.918;2024-02-26T04:02:27;99112.03;;;9.63;82.13
11643;BME280;5877;50.930;6.918;2024-02-26T04:12:09;99153.47;;;9.66;80.59
11643;BME280;5877;50.930;6.918;2024-02-26T04:21:53;99162.56;;;9.41;85.37
11643;BME280;5877;50.930;6.918;2024-02-26T04:31:37;99166.91;;;9.91;84.46
11643;BME280;5877;50.930;6.918;2024-02-26T04:41:20;99159.97;;;9.80;94.35
11643;BME280;5877;50.930;6.918;2024-02-26T04:51:02;99176.38;;;10.14;85.43
11643;BME280;5877;50.930;6.918;2024-02-26T05:00:46;99161.56;;;9.64;92.17
11643;BME280;5877;50.930;6.918;2024-02-26T05:10:29;99174.28;;;9.56;92.10
11643;BME280;5877;50.930;6.918;2024-02-26T05:20:11;99166.03;;;9.64;96.95
11643;BME280;5877;50.930;6.918;2024-02-26T05:29:54;99162.44;;;9.70;90.41
11643;BME280;5877;50.930;6.918;2024-02-26T05:39:36;99171.75;;;9.44;95.67
11643;BME280;5877;50.930;6.918;2024-02-26T05:49:19;99178.25;;;9.58;91.03
11643;BME280;5877;50.930;6.918;2024-02-26T05:59:02;99178.03;;;9.26;93.23
11643;BME280;5877;50.930;6.918;2024-02-26T06:08:45;99172.63;;;9.33;89.92
11643;BME280;5877;50.930;6.918;2024-02-26T06:18:28;99218.19;;;9.32;90.35
11643;BME280;5877;50.930;6.918;2024-02-26T06:28:10;99231.91;;;9.39;93.83
11643;BME280;5877;50.930;6.918;2024-02-26T06:37:52;99211.66;;;9.34;89.03
11643;BME280;5877;50.930;6.918;2024-02-26T06:47:36;99257.31;;;9.38;93.03
11643;BME280;5877;50.930;6.918;2024-02-26T06:57:20;99231.22;;;8.98;95.50
11643;BME280;5877;50.930;6.918;2024-02-26T07:07:02;99275.66;;;9.72;89.80
11643;BME280;5877;50.930;6.918;2024-02-26T07:16:45;99273.53;;;9.24;96.96
11643;BME280;5877;50.930;6.918;2024-02-26T07:26:27;99244.81;;;9.12;93.67
11643;BME280;5877;50.930;6.918;2024-02-26T07:36:11;99296.38;;;9.90;86.80
11643;BME280;5877;50.930;6.918;2024-02-26T07:45:54;99303.44;;;9.56;90.02
11643;BME280;5877;50.930;6.918;2024-02-26T07:55:37;99265.72;;;9.57;88.42
11643;BME280;5877;50.930;6.918;2024-02-26T08:05:22;99320.22;;;10.22;84.62
11643;BME280;5877;50.930;6.918;2024-02-26T08:15:05;99329.34;;;10.20;83.66
11643;BME280;5877;50.930;6.918;2024-02-26T08:24:48;99335.69;;;10.07;83.02
11643;BME280;5877;50.930;6.918;2024-02-26T08:34:31;99371.97;;;9.82;87.09
11643;BME280;5877;50.930;6.918;2024-02-26T08:44:13;99369.13;;;9.83;86.11
11643;BME280;5877;50.930;6.918;2024-02-26T08:53:56;99376.16;;;10.50;81.96
11643;BME280;5877;50.930;6.918;2024-02-26T09:03:38;99395.22;;;10.23;84.51
11643;BME280;5877;50.930;6.918;2024-02-26T09:13:22;99395.53;;;10.27;83.81
11643;BME280;5877;50.930;6.918;2024-02-26T09:23:04;99423.84;;;9.96;85.23
11643;BME280;5877;50.930;6.918;2024-02-26T09:32:48;99356.59;;;9.57;83.24
11643;BME280;5877;50.930;6.918;2024-02-26T09:42:31;99443.78;;;10.81;81.79
11643;BME280;5877;50.930;6.918;2024-02-26T09:52:16;99442.72;;;11.21;87.02
11643;BME280;5877;50.930;6.918;2024-02-26T10:02:00;99410.94;;;10.23;85.36
11643;BME280;5877;50.930;6.918;2024-02-26T10:11:48;99454.94;;;11.32;79.97
11643;BME280;5877;50.930;6.918;2024-02-26T10:21:33;99456.75;;;10.88;79.55
11643;BME280;5877;50.930;6.918;2024-02-26T10:31:15;99497.66;;;11.66;79.56
11643;BME280;5877;50.930;6.918;2024-02-26T10:40:57;99495.22;;;11.81;78.42
11643;BME280;5877;50.930;6.918;2024-02-26T10:50:40;99499.47;;;12.41;79.64
11643;BME280;5877;50.930;6.918;2024-02-26T11:00:23;99512.75;;;12.24;76.41
11643;BME280;5877;50.930;6.918;2024-02-26T16:16:17;99870.69;;;13.39;70.71
11643;BME280;5877;50.930;6.918;2024-02-26T16:26:01;99882.75;;;12.86;71.14
11643;BME280;5877;50.930;6.918;2024-02-26T16:35:47;99894.28;;;13.07;71.61
11643;BME280;5877;50.930;6.918;2024-02-26T16:45:30;99767.00;;;11.30;75.40
11643;BME280;5877;50.930;6.918;2024-02-26T16:55:13;99933.63;;;12.02;76.34
11643;BME280;5877;50.930;6.918;2024-02-26T17:04:55;99938.84;;;11.86;76.73
11643;BME280;5877;50.930;6.918;2024-02-26T17:14:37;99971.59;;;12.74;71.81
11643;BME280;5877;50.930;6.918;2024-02-26T17:24:22;99971.75;;;12.50;70.38
11643;BME280;5877;50.930;6.918;2024-02-26T17:34:04;100019.47;;;11.68;73.18
11643;BME280;5877;50.930;6.918;2024-02-26T17:43:53;100031.25;;;12.51;70.43
11643;BME280;5877;50.930;6.918;2024-02-26T18:05:48;100068.03;;;12.46;66.74
11643;BME280;5877;50.930;6.918;2024-02-26T18:27:50;100121.59;;;12.68;64.44
11643;BME280;5877;50.930;6.918;2024-02-26T18:38:25;100105.66;;;11.78;65.44
11643;BME280;5877;50.930;6.918;2024-02-26T19:00:00;100175.38;;;11.69;65.08
11643;BME280;5877;50.930;6.918;2024-02-26T19:10:40;100200.72;;;11.40;65.11
11643;BME280;5877;50.930;6.918;2024-02-26T19:21:02;100215.13;;;11.37;64.63
11643;BME280;5877;50.930;6.918;2024-02-26T19:30:44;100235.59;;;11.70;64.18
11643;BME280;5877;50.930;6.918;2024-02-26T19:40:29;100221.72;;;10.87;66.15
11643;BME280;5877;50.930;6.918;2024-02-26T19:50:14;100270.97;;;11.03;65.46
11643;BME280;5877;50.930;6.918;2024-02-26T19:59:56;100289.78;;;11.18;65.96
11643;BME280;5877;50.930;6.918;2024-02-26T20:09:38;100296.34;;;11.09;64.64
11643;BME280;5877;50.930;6.918;2024-02-26T20:19:21;100313.16;;;10.90;63.48
11643;BME280;5877;50.930;6.918;2024-02-26T20:29:05;100260.47;;;10.73;62.29
11643;BME280;5877;50.930;6.918;2024-02-26T20:38:48;100305.22;;;10.96;62.18
11643;BME280;5877;50.930;6.918;2024-02-26T20:48:43;100333.31;;;11.26;62.71
11643;BME280;5877;50.930;6.918;2024-02-26T20:58:29;100336.69;;;11.15;62.62
11643;BME280;5877;50.930;6.918;2024-02-26T21:08:16;100372.72;;;11.26;61.23
11643;BME280;5877;50.930;6.918;2024-02-26T21:18:20;100393.66;;;11.92;58.90
11643;BME280;5877;50.930;6.918;2024-02-26T21:28:05;100401.47;;;11.69;58.95
11643;BME280;5877;50.930;6.918;2024-02-26T21:37:47;100400.22;;;12.01;57.79
11643;BME280;5877;50.930;6.918;2024-02-26T21:47:30;100347.31;;;11.38;57.75
11643;BME280;5877;50.930;6.918;2024-02-26T21:57:14;100466.13;;;12.18;57.93
11643;BME280;5877;50.930;6.918;2024-02-26T22:06:58;100475.31;;;12.39;57.33
11643;BME280;5877;50.930;6.918;2024-02-26T22:16:40;100481.19;;;11.99;57.94
11643;BME280;5877;50.930;6.918;2024-02-26T22:26:23;100493.53;;;11.99;58.27
11643;BME280;5877;50.930;6.918;2024-02-26T22:36:07;100495.16;;;11.82;59.01
11643;BME280;5877;50.930;6.918;2024-02-26T22:45:50;100520.59;;;11.88;58.94
11643;BME280;5877;50.930;6.918;2024-02-26T22:55:32;100538.78;;;11.89;58.64
11643;BME280;5877;50.930;6.918;2024-02-26T23:05:15;100509.19;;;11.76;59.00
11643;BME280;5877;50.930;6.918;2024-02-26T23:14:59;100527.22;;;11.17;59.52
11643;BME280;5877;50.930;6.918;2024-02-26T23:24:41;100580.91;;;11.64;59.92
11643;BME280;5877;50.930;6.918;2024-02-26T23:34:23;100572.50;;;11.56;60.18
11643;BME280;5877;50.930;6.918;2024-02-26T23:44:06;100584.72;;;11.25;60.97
11643;BME280;5877;50.930;6.918;2024-02-26T23:53:48;100594.31;;;11.38;60.70
